Weather observations for the past three days for
Easton Airport
Imperial (Metric)
Date Time (edt) Wind (mph) Vis. (mi.) Weather Sky Cond. Temperature (ºF) Relative Humidity Wind Chill (°F) Heat Index (°F) Pressure Precipitation (in)
Air Dwpt 6 hour altimeter (in) sea level (mb) 1 hr 3 hr 6 hr
Max. Min.
02 17:45 N 10 10.00 Partly Cloudy SCT170 59 30.2 34% 29.86 0.0
02 16:45 NW 8 10.00 Mostly Cloudy BKN170 59 30.2 34% 29.86 0.0
02 15:45 NW 12 G 18 10.00 Mostly Cloudy BKN180 59 32 36% 29.87 0.0
02 14:45 NW 12 10.00 A Few Clouds FEW190 60.8 30.2 31% 29.89 0.0
02 12:45 NW 12 10.00 Mostly Cloudy BKN170 55.4 32 41% 29.93 0.0
02 11:45 N 10 10.00 A Few Clouds FEW170 55.4 33.8 44% 29.95 0.0
02 10:45 N 12 10.00 Mostly Cloudy BKN190 53.6 37.4 54% 29.93 0.0
02 09:45 N 9 10.00 A Few Clouds FEW380 53.6 39.2 58% 29.93 0.0
02 08:45 N 8 10.00 Fair CLR 51.8 39.2 62% 29.94 0.0
02 07:45 N 13 10.00 Fair CLR 51.8 37.4 58% 29.94 0.0
02 06:45 NW 9 10.00 Fair CLR 50 42.8 76% 47 29.92 0.0
02 05:55 Calm 10.00 Fair CLR 48.2 46.4 94% 29.91 0.0
02 05:35 Calm 10.00 Fair CLR 48 45.5 91% 29.9 0.0
02 05:15 Calm 10.00 Fair CLR 48.7 46 90% 29.9 0.0
02 04:55 Calm 10.00 Fair CLR 48.7 46 90% 29.9 0.0
02 04:35 Calm 10.00 A Few Clouds FEW120 48.6 45.9 90% 29.89 0.0
02 04:15 NE 3 10.00 Partly Cloudy SCT120 49.5 45.9 87% 29.89 0.0
02 03:55 N 3 10.00 Mostly Cloudy BKN110 50.2 46.2 86% 29.89 0.0
02 03:15 Calm 10.00 Mostly Cloudy SCT055 BKN110 50.7 45.7 83% 29.88 0.0
02 02:55 Calm 10.00 Mostly Cloudy SCT055 BKN110 51.3 46 82% 29.89 0.0
02 02:35 Calm 10.00 Partly Cloudy SCT110 50.9 45.7 82% 29.89 0.0
02 02:15 S 5 10.00 A Few Clouds FEW060 51.1 45.3 81% 29.9 0.0
02 01:55 S 5 10.00 A Few Clouds FEW060 52.3 45.3 58.8 52.2 77% 29.9 0.0
02 01:35 S 6 10.00 Fair CLR 52.3 45 76% 29.91 0.0
02 01:15 S 7 10.00 A Few Clouds FEW100 52.7 44.6 74% 29.9 0.0
02 00:55 S 9 10.00 Fair CLR 53.1 44.2 72% 29.9 0.0
02 00:35 S 8 10.00 A Few Clouds FEW100 53.2 44.4 72% 29.9 0.0
02 00:15 S 9 10.00 Partly Cloudy SCT100 SCT130 53.6 44.4 71% 29.9 0.0
01 23:55 S 8 10.00 Mostly Cloudy BKN120 53.8 44.4 71% 29.9 0.0
01 23:35 S 7 10.00 Mostly Cloudy BKN120 53.8 44.6 71% 29.9 0.0
01 23:15 S 7 10.00 Mostly Cloudy BKN130 53.8 45.5 74% 29.89 0.0
01 22:55 S 7 10.00 A Few Clouds FEW130 53.4 45 73% 29.89 0.0
01 22:35 S 9 10.00 Partly Cloudy SCT130 54.5 44.6 69% 29.9 0.0
01 22:15 S 9 10.00 Partly Cloudy SCT130 54.9 43.5 66% 29.9 0.0
01 21:45 SE 9 10.00 A Few Clouds FEW120 55.4 41 59% 29.89 0.0
01 20:45 SE 8 10.00 Fair CLR 55.4 39.2 55% 29.89 0.0
01 19:45 S 9 10.00 Fair CLR 60.8 33.8 36% 29.87 0.0
01 18:45 S 8 10.00 Fair CLR 62.6 32 32% 29.87 0.0
01 17:45 SW 9 10.00 Fair CLR 64.4 30.2 28% 29.88 0.0
01 16:50 SW 10 10.00 Fair CLR 64.4 28.4 26% 29.89 0.0
01 15:45 S 14 10.00 Fair CLR 64.4 28.4 26% 29.9 0.0
01 14:45 NW 9 10.00 Fair CLR 62.6 32 32% 29.92 0.0
01 13:45 W 12 G 22 10.00 Fair CLR 60.8 32 34% 29.94 0.0
01 12:50 W 7 10.00 Fair CLR 60.8 28.4 29% 29.94 0.0
01 11:50 NE 5 10.00 Fair CLR 60.8 26.6 27% 29.97 0.0
01 10:45 W 3 10.00 Fair CLR 59 28.4 31% 29.99 0.0
01 09:45 N 7 10.00 Fair CLR 57.2 32 39% 29.99 0.0
01 08:45 Vrbl 7 10.00 Fair CLR 53.6 35.6 51% 30 0.0
01 07:45 NW 3 10.00 Fair CLR 50 41 71% 29.99 0.0
01 06:45 Calm 10.00 Fair CLR 42.8 37.4 81% 29.98 0.0
01 05:55 N 3 10.00 Fair CLR 44.6 37.4 76% 29.97 0.0
01 05:35 Calm 10.00 Fair CLR 43.7 37.4 79% 29.97 0.0
01 05:15 Calm 10.00 Fair CLR 43.3 37.6 80% 29.97 0.0
01 04:55 Calm 10.00 Fair CLR 44.8 37.4 75% 29.97 0.0
01 04:35 NW 3 10.00 Fair CLR 48 37.6 67% 29.96 0.0
01 04:15 NW 5 10.00 Fair CLR 47.3 37.4 69% 46 29.96 0.0
01 03:55 NW 7 10.00 Fair CLR 48.2 37.9 68% 46 29.95 0.0
01 03:35 Calm 10.00 Fair CLR 48 37.8 68% 29.95 0.0
01 03:15 NW 6 10.00 Fair CLR 47.5 37.8 69% 45 29.95 0.0
01 02:55 NW 5 10.00 Fair CLR 48.2 37.9 68% 47 29.94 0.0
01 02:35 NW 7 10.00 Fair CLR 48.6 37.9 67% 46 29.93 0.0
01 02:15 NW 6 10.00 Fair CLR 48.9 37.6 65% 47 29.93 0.0
01 01:35 NW 7 10.00 Fair CLR 50.7 37.2 60% 29.92 0.0
01 00:55 NW 6 10.00 Fair CLR 50.2 38.1 63% 29.93 0.0
01 00:35 NW 10 10.00 Fair CLR 49.8 38.1 64% 46 29.93 0.0
01 00:15 NW 6 10.00 Fair CLR 51.6 37.4 58% 29.93 0.0
30 23:55 NW 14 G 18 10.00 Fair CLR 52.3 37.4 57% 29.92 0.0
30 23:35 NW 9 10.00 Fair CLR 52.2 37.8 58% 29.92 0.0
30 23:15 NW 8 10.00 Fair CLR 52 38.5 60% 29.91 0.0
30 22:55 NW 10 10.00 Fair CLR 53.2 37.9 56% 29.92 0.0
30 22:35 NW 7 10.00 Fair CLR 54 38.3 56% 29.92 0.0
30 21:50 NW 17 G 36 10.00 Fair CLR 57.2 33.8 41% 29.9 0.0
30 20:50 NW 18 G 30 10.00 Mostly Cloudy BKN095 60.8 37.4 42% 29.85 0.0
30 19:50 NW 16 G 26 10.00 Partly Cloudy SCT095 62.6 35.6 37% 29.81 0.0
30 18:50 NW 10 G 22 10.00 Partly Cloudy SCT090 66.2 32 28% 29.79 0.0
30 17:45 NW 9 G 23 10.00 Partly Cloudy SCT075 68 32 26% 29.77 0.0
30 16:45 NW 10 G 20 10.00 Partly Cloudy SCT075 68 33.8 28% 29.76 0.0
30 15:50 NW 16 10.00 Partly Cloudy SCT075 68 33.8 28% 29.76 0.0
30 14:50 NW 13 G 22 10.00 Partly Cloudy SCT065 69.8 35.6 29% 29.76 0.0
30 13:45 NW 13 G 21 10.00 Partly Cloudy SCT050 68 41 38% 29.76 0.0
30 12:45 N 10 10.00 Partly Cloudy SCT043 66.2 46.4 49% 29.77 0.0
30 11:45 NW 15 G 21 10.00 Partly Cloudy SCT035 64.4 46.4 52% 29.78 0.0
30 10:45 NW 14 G 21 10.00 A Few Clouds FEW025 60.8 48.2 63% 29.79 0.0
30 09:55 NW 16 G 22 10.00 Fair CLR 60.8 50 68% 29.78 0.0
30 08:45 NW 10 10.00 Fair CLR 59 53.6 82% 29.77 0.0
30 07:59 Calm 10.00 Fair CLR 53.6 53.6 100% 29.77 0.0
30 06:50 Calm 10.00 Fair CLR 48.2 48.2 100% 29.77 0.0
30 05:55 NW 5 9.00 Fair CLR 47.1 47.1 100% 46 29.76 0.0
30 05:45 W 3 10.00 Fair CLR 46.4 46.4 100% 29.76 0.0
30 05:35 W 3 10.00 A Few Clouds FEW014 47.7 47.7 100% 29.76 0.0
30 05:15 SW 3 10.00 Overcast OVC013 49.6 49.6 100% 29.76 0.0
30 04:55 Calm 10.00 Overcast OVC012 50 50 100% 29.75 0.0
30 04:35 Calm 10.00 Overcast OVC011 50 50 100% 29.75 0.0
30 04:15 Calm 10.00 Overcast OVC012 49.8 49.8 100% 29.75 0.0
30 03:55 N 3 10.00 A Few Clouds FEW015 49.5 49.5 100% 29.74 0.0
30 03:35 N 3 10.00 Fair CLR 49.6 49.6 100% 29.74 0.0
30 03:15 NE 3 10.00 Fair CLR 50 50 100% 29.73 0.0
30 02:55 NE 3 10.00 A Few Clouds FEW019 50.4 50.4 100% 29.74 0.0
30 02:35 NE 6 10.00 Mostly Cloudy BKN019 51.1 50.5 98% 29.74 0.0
30 02:15 NE 7 10.00 Overcast OVC018 51.4 50.7 97% 29.74 0.0
30 01:55 NE 6 10.00 Mostly Cloudy FEW015 BKN026 51.4 50.9 57.2 51.4 98% 29.75 0.0 0.02
30 01:35 NE 6 10.00 Partly Cloudy SCT018 SCT100 51.8 51.1 97% 29.75 0.0
30 01:15 NE 6 10.00 Overcast OVC019 52.5 50.4 92% 29.75 0.0
30 00:55 NW 5 10.00 Overcast BKN023 OVC032 53.2 50.4 90% 29.75 0.0
30 00:35 SE 3 9.00 Light Rain OVC025 53.2 49.3 87% 29.74 0.0
30 00:15 Calm 8.00 Light Rain OVC027 54 48.2 81% 29.75 0.0
29 23:55 SE 5 10.00 Mostly Cloudy BKN029 54 47.5 79% 29.75 0.0
29 23:35 S 7 10.00 Overcast BKN030 OVC038 53.8 47.3 79% 29.75 0.0
29 23:15 S 6 10.00 Overcast OVC033 53.4 47.3 80% 29.76 0.0
29 22:55 S 6 10.00 Overcast OVC034 53.2 46.8 79% 29.76 0.0 0.02
29 22:35 SE 8 10.00 Overcast OVC034 53.2 46.6 78% 29.77 0.0
29 22:15 S 7 10.00 Overcast OVC035 52.9 46.2 78% 29.78 0.0
29 21:45 SE 9 10.00 Overcast OVC034 51.8 46.4 82% 29.78 0.0
29 20:45 SE 7 9.00 Light Rain FEW037 BKN048 53.6 44.6 72% 29.79 0.0
29 19:45 SE 6 8.00 Light Rain BKN039 57.2 44.6 63% 29.78 0.0
29 18:45 SE 10 10.00 Mostly Cloudy BKN037 60.8 44.6 55% 29.8 0.0
Date Time (edt) Wind (mph) Vis. (mi.) Weather Sky Cond. Air Dwpt Max. Min. Relative Humidity Wind Chill (°F) Heat Index (°F) altimeter (in) sea level (mb) 1 hr 3 hr 6 hr
6 hour
Temperature (ºF) Pressure Precipitation (in)